map of BLM home
BLM - Airport
Location
City:  Belmar/Farmingdale, New Jersey, United States
Name:Monmouth Executive Airport
ICAO:KBLM
IATA:BLM
FAA LID:BLM

Details
Type:Airport (Airfield)
Use:Public/Civil
Latitude:4011'12"N (40.186778)
Longitude:7407'28"W (-74.124555)
Datum:WGS 1984
Elevation:153 ft (47 m)
Variation:12.59W (WMM2015v2 magnetic declination)
0.05 annual change
Runways:2
Longest:7345 × 85 ft (2239 × 26 m), paved

Time
Time Zone:UTC-5 (DST-4)
Local Time:

Weather
METAR:KBLM 041418Z AUTO 16003KT 8SM SCT002 04/03 A3011 RMK AO2

Related Locations
Nearby:
Farthest:YAUG: 11787 mi / 18969 km
Augusta [Augusta Airport], WA, AU

Find:

   beyond  
but within

Other Information
Maps:
NOTAMs:
Links:
Sources:

  
  • flag of United States
  • flag of New Jersey
  

Sectional Chart

Flight Planning
at skyvector.com

Satellite Image

Google Maps Satellite view

 

Copyright © 2004-2019 Karl L. Swartz. All rights reserved.
The Great Circle Mapper name and logo are trademarks of the Great Circle Mapper.
All other trademarks mentioned herein belong to their respective owners.
Please see credits for attibutions and further copyright information.

  Follow gcmap on Facebook Follow gcmap on Twitter GCmap on LinkedIn

hCard Microformat

Geo Microformat